Time;durP1;ratioP1;P1;durP2;ratioP2;P2;SDS_P1;SDS_P2;PMS_P1;PMS_P2;Temp;Humidity;BMP_temperature;BMP_pressure;BME280_temperature;BME280_humidity;BME280_pressure;Samples;Min_cycle;Max_cycle;Signal;HPM_P1;HPM_P2
2022/05/22 00:01:54;;;;;;;;;3.67;3.67;;;;;18.24;100.00;101293.66;5055441;28;45043;-81
2022/05/22 00:04:20;;;;;;;;;4.67;4.67;;;;;18.22;100.00;101283.88;5058761;28;45667;-83
2022/05/22 00:06:46;;;;;;;;;3.67;3.67;;;;;18.10;100.00;101276.47;5057539;28;46118;-82
2022/05/22 00:09:12;;;;;;;;;3.33;3.33;;;;;18.08;100.00;101264.72;5066961;28;45895;-81
2022/05/22 00:11:37;;;;;;;;;4.67;3.33;;;;;17.99;100.00;101255.13;5062138;28;45281;-80
2022/05/22 00:14:03;;;;;;;;;4.67;3.67;;;;;18.05;100.00;101273.56;5054885;28;46511;-81
2022/05/22 00:16:37;;;;;;;;;2.67;2.67;;;;;17.98;100.00;101270.09;5055367;28;46272;-81
2022/05/22 00:19:07;;;;;;;;;4.67;3.00;;;;;18.05;100.00;101269.94;5054763;28;45759;-82
2022/05/22 00:21:35;;;;;;;;;5.00;4.00;;;;;18.01;100.00;101272.38;5054596;28;45745;-82
2022/05/22 00:24:01;;;;;;;;;8.33;6.33;;;;;17.94;100.00;101263.34;5054626;28;45468;-80
2022/05/22 00:26:26;;;;;;;;;5.33;3.33;;;;;17.92;100.00;101259.97;5055224;28;45488;-81
2022/05/22 00:28:52;;;;;;;;;3.00;3.00;;;;;17.90;100.00;101251.03;5054008;28;45768;-81
2022/05/22 00:31:18;;;;;;;;;4.00;2.00;;;;;17.94;100.00;101257.81;5071108;28;45347;-81
2022/05/22 00:33:43;;;;;;;;;7.00;4.00;;;;;17.79;100.00;101239.69;5076099;27;45396;-82
2022/05/22 00:36:10;;;;;;;;;3.00;3.00;;;;;17.97;100.00;101271.19;5075494;27;45782;-83
2022/05/22 00:38:36;;;;;;;;;6.33;4.00;;;;;17.93;100.00;101269.97;5092696;27;45471;-83
2022/05/22 00:41:02;;;;;;;;;5.33;5.00;;;;;17.99;100.00;101274.53;5077829;27;45780;-82
2022/05/22 00:43:32;;;;;;;;;2.00;2.00;;;;;17.97;100.00;101257.31;5076104;28;45698;-82
2022/05/22 00:45:59;;;;;;;;;4.33;3.00;;;;;17.78;100.00;101224.16;5055302;28;47382;-82
2022/05/22 00:48:26;;;;;;;;;3.67;3.67;;;;;17.95;100.00;101248.41;5056365;28;45555;-83
2022/05/22 00:50:57;;;;;;;;;3.33;3.33;;;;;17.87;100.00;101241.25;5063335;28;45538;-81
2022/05/22 00:53:23;;;;;;;;;2.67;2.67;;;;;17.81;100.00;101218.13;5072247;28;46014;-82
2022/05/22 00:55:49;;;;;;;;;4.67;4.67;;;;;17.91;100.00;101236.94;5071104;28;47038;-82
2022/05/22 00:58:20;;;;;;;;;4.33;3.33;;;;;17.93;100.00;101226.41;5055227;28;45377;-81
2022/05/22 01:00:47;;;;;;;;;6.67;5.00;;;;;17.92;100.00;101226.66;5056205;28;45460;-83
2022/05/22 01:03:27;;;;;;;;;10.33;8.67;;;;;17.78;100.00;101207.50;5055515;28;46204;-81
2022/05/22 01:05:57;;;;;;;;;6.00;6.00;;;;;17.84;100.00;101214.00;5071652;28;48014;-81
2022/05/22 01:08:23;;;;;;;;;5.33;5.33;;;;;17.85;100.00;101210.13;5058096;28;44773;-82
2022/05/22 01:10:53;;;;;;;;;5.33;5.33;;;;;17.65;100.00;101180.88;5057991;28;45725;-83
2022/05/22 01:13:24;;;;;;;;;6.67;5.00;;;;;17.68;100.00;101176.78;5056069;28;45657;-82
2022/05/22 01:15:50;;;;;;;;;6.67;6.33;;;;;17.61;100.00;101176.91;5055298;28;46317;-82
2022/05/22 01:18:16;;;;;;;;;5.67;5.67;;;;;17.77;100.00;101210.50;5053613;28;45652;-79
2022/05/22 01:20:49;;;;;;;;;9.67;8.33;;;;;17.75;100.00;101209.91;5054922;28;45432;-80
2022/05/22 01:23:16;;;;;;;;;15.33;10.67;;;;;17.67;100.00;101197.28;5054152;28;45907;-82
2022/05/22 01:25:42;;;;;;;;;10.33;10.33;;;;;17.65;100.00;101194.75;5063599;28;47088;-85
2022/05/22 01:28:11;;;;;;;;;12.00;11.33;;;;;17.47;100.00;101167.19;5071308;28;45520;-85
2022/05/22 01:30:36;;;;;;;;;24.00;17.33;;;;;17.62;100.00;101191.66;5075674;28;45880;-84
2022/05/22 01:33:03;;;;;;;;;18.67;15.33;;;;;17.63;100.00;101199.72;5074929;28;46055;-84
2022/05/22 01:35:30;;;;;;;;;21.33;15.67;;;;;17.63;100.00;101193.31;5073762;27;45923;-81
2022/05/22 01:37:57;;;;;;;;;19.67;19.00;;;;;17.43;100.00;101166.81;5074504;27;45547;-82
2022/05/22 01:40:24;;;;;;;;;22.33;19.00;;;;;17.53;100.00;101184.75;5075047;27;45379;-82
2022/05/22 01:42:52;;;;;;;;;14.00;14.00;;;;;17.42;100.00;101167.91;5074036;27;45572;-80
2022/05/22 01:45:26;;;;;;;;;18.00;14.33;;;;;17.54;100.00;101180.91;5074543;27;45468;-80
2022/05/22 01:47:52;;;;;;;;;20.33;20.00;;;;;17.55;100.00;101175.13;5072919;28;45395;-82
2022/05/22 01:50:19;;;;;;;;;12.67;12.00;;;;;17.57;100.00;101177.66;5072080;28;45281;-81
2022/05/22 01:52:47;;;;;;;;;19.33;14.00;;;;;17.58;100.00;101182.13;5052249;28;45804;-80
2022/05/22 01:55:14;;;;;;;;;14.00;12.67;;;;;17.57;100.00;101184.03;5052580;28;45727;-81
2022/05/22 01:57:40;;;;;;;;;23.67;16.00;;;;;17.56;100.00;101185.13;5053957;28;45699;-81
2022/05/22 02:00:09;;;;;;;;;14.33;14.33;;;;;17.57;100.00;101185.97;5053518;28;45847;-82
2022/05/22 02:02:35;;;;;;;;;11.00;11.00;;;;;17.55;100.00;101183.44;5053373;28;45693;-79
2022/05/22 02:05:02;;;;;;;;;14.00;12.00;;;;;17.52;100.00;101174.78;5051498;28;47187;-79
2022/05/22 02:10:13;;;;;;;;;9.33;6.33;;;;;17.51;100.00;101181.41;5054695;28;45546;-82
2022/05/22 02:12:39;;;;;;;;;13.00;9.00;;;;;17.51;100.00;101193.34;5053996;28;45804;-82
2022/05/22 02:15:05;;;;;;;;;9.67;8.67;;;;;17.50;100.00;101199.13;5052618;28;46154;-81
2022/05/22 02:17:32;;;;;;;;;8.33;7.33;;;;;17.44;100.00;101182.38;5053037;28;45801;-82
2022/05/22 02:19:57;;;;;;;;;7.33;6.00;;;;;17.49;100.00;101186.38;5053003;28;45459;-81
2022/05/22 02:22:23;;;;;;;;;6.33;5.33;;;;;17.47;100.00;101193.00;5053865;28;45538;-82
2022/05/22 02:24:53;;;;;;;;;7.00;7.00;;;;;17.35;100.00;101177.44;5055086;28;46418;-82
2022/05/22 02:27:19;;;;;;;;;6.67;5.33;;;;;17.38;100.00;101183.38;5055313;28;45847;-81
2022/05/22 02:29:45;;;;;;;;;6.00;5.00;;;;;17.42;100.00;101194.81;5056765;28;45481;-82
2022/05/22 02:32:11;;;;;;;;;5.00;5.00;;;;;17.41;100.00;101191.19;5062813;28;45505;-81
2022/05/22 02:34:37;;;;;;;;;6.67;4.33;;;;;17.43;100.00;101202.88;5077195;28;46800;-80
2022/05/22 02:37:06;;;;;;;;;8.67;6.67;;;;;17.43;100.00;101186.25;5062929;28;45375;-82
2022/05/22 02:39:32;;;;;;;;;11.33;10.67;;;;;17.37;100.00;101186.38;5059865;28;44785;-81
2022/05/22 02:42:03;;;;;;;;;7.67;7.33;;;;;17.38;100.00;101197.22;5060767;28;45449;-81
2022/05/22 02:44:29;;;;;;;;;17.33;14.33;;;;;17.29;100.00;101196.75;5057489;28;46476;-83
2022/05/22 02:46:54;;;;;;;;;15.67;11.33;;;;;17.25;100.00;101189.16;5056586;28;44691;-80
2022/05/22 02:49:20;;;;;;;;;10.33;10.00;;;;;17.28;100.00;101205.31;5058853;28;45765;-82
2022/05/22 02:51:45;;;;;;;;;14.67;12.33;;;;;17.09;100.00;101183.25;5057635;28;45573;-83
2022/05/22 02:54:11;;;;;;;;;10.33;9.67;;;;;17.12;100.00;101184.72;5054615;28;46124;-81
2022/05/22 02:56:36;;;;;;;;;9.67;8.33;;;;;17.26;100.00;101213.88;5055816;28;45398;-80
2022/05/22 02:59:02;;;;;;;;;6.67;5.67;;;;;17.18;100.00;101202.31;5057006;28;45543;-79
2022/05/22 03:01:27;;;;;;;;;6.00;6.00;;;;;17.10;100.00;101192.44;5056724;28;45914;-80
2022/05/22 03:03:54;;;;;;;;;6.00;4.33;;;;;16.96;100.00;101178.00;5057413;28;45489;-83
2022/05/22 03:06:40;;;;;;;;;4.00;4.00;;;;;17.17;100.00;101207.00;5073564;28;45492;-82
2022/05/22 03:09:16;;;;;;;;;7.33;5.67;;;;;17.06;100.00;101194.00;5056257;28;45572;-80
2022/05/22 03:11:43;;;;;;;;;6.33;6.33;;;;;16.92;100.00;101168.47;5053300;28;45780;-80
2022/05/22 03:14:10;;;;;;;;;5.67;5.67;;;;;16.99;100.00;101180.28;5054227;28;47265;-81
2022/05/22 03:16:35;;;;;;;;;6.00;6.00;;;;;16.94;100.00;101171.81;5052929;28;45695;-81
2022/05/22 03:19:01;;;;;;;;;6.00;6.00;;;;;17.02;100.00;101179.78;5056074;28;45387;-83
2022/05/22 03:21:28;;;;;;;;;5.67;5.67;;;;;16.95;100.00;101176.28;5057412;28;45908;-84
2022/05/22 03:23:54;;;;;;;;;8.33;7.00;;;;;16.94;100.00;101166.28;5064007;28;48441;-81
2022/05/22 03:26:19;;;;;;;;;6.33;6.33;;;;;16.99;100.00;101174.72;5062844;28;45849;-82
2022/05/22 03:28:45;;;;;;;;;4.00;4.00;;;;;16.97;100.00;101163.03;5059543;28;45293;-83
2022/05/22 03:31:10;;;;;;;;;7.67;5.33;;;;;16.97;100.00;101160.25;5058343;28;45886;-83
2022/05/22 03:33:36;;;;;;;;;8.67;6.67;;;;;17.03;100.00;101164.81;5056606;28;45476;-80
2022/05/22 03:36:03;;;;;;;;;8.67;7.00;;;;;17.00;100.00;101157.00;5055915;28;45402;-80
2022/05/22 03:38:28;;;;;;;;;5.33;5.33;;;;;17.03;100.00;101167.59;5056320;28;45363;-82
2022/05/22 03:40:54;;;;;;;;;9.33;6.67;;;;;16.98;100.00;101156.41;5054643;28;46404;-81
2022/05/22 03:43:19;;;;;;;;;8.00;8.00;;;;;17.05;100.00;101162.69;5055469;28;47643;-81
2022/05/22 03:45:45;;;;;;;;;10.00;6.67;;;;;17.00;100.00;101153.41;5056454;28;45395;-80
2022/05/22 03:48:11;;;;;;;;;8.33;7.33;;;;;17.01;100.00;101161.47;5055454;28;45454;-81
2022/05/22 03:50:37;;;;;;;;;11.00;6.33;;;;;16.96;100.00;101161.38;5053004;28;45833;-81
2022/05/22 03:53:03;;;;;;;;;6.67;5.00;;;;;16.92;100.00;101146.31;5047710;28;45432;-80
2022/05/22 03:55:29;;;;;;;;;5.33;5.33;;;;;16.85;100.00;101142.78;5057658;28;45697;-80
2022/05/22 03:57:55;;;;;;;;;6.33;6.33;;;;;16.97;100.00;101157.47;5050864;28;45443;-80
2022/05/22 04:00:23;;;;;;;;;3.67;3.67;;;;;17.02;100.00;101156.75;5076018;28;45579;-80
2022/05/22 04:02:52;;;;;;;;;7.33;7.33;;;;;17.02;100.00;101152.09;5059207;28;45454;-80
2022/05/22 04:05:19;;;;;;;;;10.00;7.00;;;;;17.01;100.00;101139.31;5060042;28;45544;-80
2022/05/22 04:07:47;;;;;;;;;9.33;8.33;;;;;17.00;100.00;101126.53;5060001;28;45412;-81
2022/05/22 04:10:15;;;;;;;;;9.67;7.33;;;;;17.06;100.00;101136.63;5060392;28;45513;-82
2022/05/22 04:12:48;;;;;;;;;11.67;6.33;;;;;16.99;100.00;101119.31;5058608;28;45553;-82
2022/05/22 04:15:18;;;;;;;;;7.67;6.33;;;;;16.98;100.00;101114.84;5051987;28;45958;-80
2022/05/22 04:17:45;;;;;;;;;11.00;8.00;;;;;17.09;100.00;101133.38;5040417;28;45856;-81
2022/05/22 04:20:13;;;;;;;;;8.00;8.00;;;;;17.09;100.00;101133.38;5046546;28;45063;-81
2022/05/22 04:25:11;;;;;;;;;9.00;9.00;;;;;17.04;100.00;101124.97;5055981;28;48183;-81
2022/05/22 04:25:26;;;;;;;;;5.33;5.33;;;;;16.95;100.00;101101.47;5051689;28;45362;-81
2022/05/22 04:27:53;;;;;;;;;8.67;7.67;;;;;17.14;100.00;101129.03;5046905;28;45841;-81
2022/05/22 04:30:23;;;;;;;;;8.67;7.00;;;;;17.19;100.00;101134.72;5046952;28;45545;-80
2022/05/22 04:32:52;;;;;;;;;7.33;6.33;;;;;17.29;100.00;101132.16;5052014;28;47342;-80
2022/05/22 04:35:20;;;;;;;;;9.33;6.33;;;;;17.27;100.00;101112.13;5058331;28;45829;-81
2022/05/22 04:37:46;;;;;;;;;6.67;6.67;;;;;17.54;100.00;101119.91;5058189;28;45422;-81
2022/05/22 04:40:13;;;;;;;;;8.00;7.00;;;;;17.68;100.00;101114.91;5057875;28;45915;-83
2022/05/22 04:42:39;;;;;;;;;5.33;5.33;;;;;17.86;100.00;101105.53;5060014;28;45306;-83
2022/05/22 04:45:13;;;;;;;;;8.33;5.00;;;;;17.95;100.00;101135.44;5057861;28;45438;-81
2022/05/22 04:47:41;;;;;;;;;6.00;6.00;;;;;17.98;100.00;101139.66;5056092;28;45527;-81
2022/05/22 04:50:08;;;;;;;;;5.67;5.67;;;;;17.99;100.00;101130.22;5057156;28;45639;-80
2022/05/22 04:52:34;;;;;;;;;4.33;4.33;;;;;18.09;100.00;101143.47;5057286;28;45437;-81
2022/05/22 04:54:59;;;;;;;;;6.00;6.00;;;;;18.07;100.00;101131.75;5058359;28;45476;-80
2022/05/22 04:57:25;;;;;;;;;8.33;6.67;;;;;18.14;100.00;101144.41;5059411;28;44806;-82
2022/05/22 04:59:51;;;;;;;;;3.00;3.00;;;;;17.90;100.00;101104.81;5058973;28;45839;-86
2022/05/22 05:02:16;;;;;;;;;7.00;5.33;;;;;18.01;100.00;101119.75;5047563;28;45939;-82
2022/05/22 05:04:42;;;;;;;;;10.00;6.67;;;;;18.22;100.00;101154.25;5049082;28;45507;-80
2022/05/22 05:07:09;;;;;;;;;6.00;5.33;;;;;18.13;100.00;101133.56;5053743;28;45722;-83
2022/05/22 05:09:35;;;;;;;;;5.00;4.33;;;;;18.33;100.00;101152.50;5048892;28;45600;-83
2022/05/22 05:12:02;;;;;;;;;6.33;6.33;;;;;18.35;100.00;101153.06;5063736;28;47104;-82
2022/05/22 05:14:27;;;;;;;;;6.33;4.00;;;;;18.42;100.00;101148.22;5058279;28;45423;-83
2022/05/22 05:16:53;;;;;;;;;8.67;7.33;;;;;18.38;100.00;101135.91;5053723;28;45484;-83
2022/05/22 05:19:19;;;;;;;;;6.00;5.67;;;;;18.43;100.00;101126.81;5060297;28;45770;-83
2022/05/22 05:21:45;;;;;;;;;7.00;7.00;;;;;18.61;100.00;101150.75;5055846;27;48082;-84
2022/05/22 05:24:10;;;;;;;;;7.33;6.00;;;;;18.65;100.00;101146.34;5071565;28;45626;-83
2022/05/22 05:26:35;;;;;;;;;7.00;6.00;;;;;18.66;100.00;101137.75;5051754;28;45369;-82
2022/05/22 05:29:01;;;;;;;;;6.00;6.00;;;;;18.65;100.00;101135.25;5052487;28;46210;-83
2022/05/22 05:31:27;;;;;;;;;6.33;5.33;;;;;18.64;100.00;101122.47;5071413;27;45478;-81
2022/05/22 05:33:52;;;;;;;;;5.67;5.67;;;;;18.92;100.00;101148.47;5050468;28;45851;-83
2022/05/22 05:36:17;;;;;;;;;9.33;6.00;;;;;19.00;100.00;101148.06;5046028;28;45840;-82
2022/05/22 05:38:43;;;;;;;;;3.00;3.00;;;;;18.96;100.00;101119.91;5055416;28;45772;-80
2022/05/22 05:41:09;;;;;;;;;4.00;4.00;;;;;19.23;100.00;101146.97;5055998;28;45812;-81
2022/05/22 05:43:34;;;;;;;;;9.00;5.33;;;;;19.29;100.00;101137.59;5052726;28;45537;-84
2022/05/22 05:46:00;;;;;;;;;5.67;4.67;;;;;19.55;100.00;101151.81;5058041;28;45405;-81
2022/05/22 05:48:25;;;;;;;;;7.33;6.33;;;;;19.72;100.00;101157.34;5048822;28;45659;-82
2022/05/22 05:50:51;;;;;;;;;8.33;7.00;;;;;19.93;100.00;101161.22;5056184;28;47407;-84
2022/05/22 05:53:17;;;;;;;;;4.00;4.00;;;;;20.13;100.00;101159.75;5054026;28;45999;-81
2022/05/22 05:55:42;;;;;;;;;5.67;5.67;;;;;20.31;100.00;101144.59;5055339;28;45815;-81
2022/05/22 05:58:08;;;;;;;;;7.67;6.00;;;;;20.55;100.00;101137.56;5047264;28;45597;-81
2022/05/22 06:00:33;;;;;;;;;6.33;6.33;;;;;20.77;100.00;101137.47;5049155;28;45514;-81
2022/05/22 06:03:00;;;;;;;;;6.50;5.00;;;;;21.01;100.00;101133.47;5046729;28;45537;-82
2022/05/22 06:05:25;;;;;;;;;3.67;2.00;;;;;21.07;100.00;101113.69;5041642;28;45809;-85
2022/05/22 06:07:52;;;;;;;;;5.33;5.33;;;;;21.16;100.00;101077.75;5059295;28;45494;-84
2022/05/22 06:10:19;;;;;;;;;11.33;6.00;;;;;21.55;100.00;101113.66;5062011;28;47074;-83
2022/05/22 06:12:48;;;;;;;;;9.67;9.00;;;;;22.02;100.00;101117.41;5057210;28;45743;-85
2022/05/22 06:15:14;;;;;;;;;11.33;7.67;;;;;22.14;100.00;101089.19;5058667;28;44891;-84
2022/05/22 06:17:46;;;;;;;;;9.67;7.67;;;;;22.44;100.00;101107.97;5057181;28;45426;-83
2022/05/22 06:20:19;;;;;;;;;10.67;6.33;;;;;22.62;100.00;101114.09;5054761;28;45825;-85
2022/05/22 06:22:48;;;;;;;;;6.67;6.00;;;;;22.86;100.00;101103.16;5055164;28;45420;-86
2022/05/22 06:25:19;;;;;;;;;10.00;9.00;;;;;22.92;100.00;101058.13;5058636;27;45552;-87
2022/05/22 06:27:45;;;;;;;;;8.33;7.33;;;;;23.34;100.00;101085.94;5064719;28;46221;-84
2022/05/22 06:30:13;;;;;;;;;6.67;6.33;;;;;23.40;100.00;101056.84;5053348;28;45746;-84
2022/05/22 06:32:41;;;;;;;;;7.67;7.67;;;;;23.72;100.00;101070.34;5038280;28;45622;-84
2022/05/22 06:35:09;;;;;;;;;8.00;5.67;;;;;23.83;100.00;101061.88;5048996;28;45865;-84
2022/05/22 06:37:36;;;;;;;;;8.67;8.67;;;;;24.04;100.00;101069.06;5064466;28;45414;-83
2022/05/22 06:40:07;;;;;;;;;10.33;7.67;;;;;24.14;100.00;101052.13;5049014;28;47579;-84
2022/05/22 06:42:38;;;;;;;;;9.33;6.67;;;;;24.74;100.00;101051.03;5043076;28;45510;-83
2022/05/22 06:45:11;;;;;;;;;6.33;6.33;;;;;25.35;100.00;101043.88;5046206;28;45532;-82
2022/05/22 06:47:37;;;;;;;;;9.00;7.00;;;;;25.77;100.00;101040.50;5044511;28;46258;-81
2022/05/22 06:50:08;;;;;;;;;5.00;5.00;;;;;26.11;100.00;101023.38;5055618;28;46350;-84
2022/05/22 06:52:36;;;;;;;;;6.00;6.00;;;;;26.40;100.00;101023.13;5059030;28;45881;-85
2022/05/22 06:55:03;;;;;;;;;4.33;4.33;;;;;26.82;99.88;101003.50;5059890;28;45454;-82
2022/05/22 06:57:29;;;;;;;;;4.33;4.33;;;;;27.35;97.77;101038.75;5062083;28;45531;-81
2022/05/22 07:00:03;;;;;;;;;5.00;4.33;;;;;27.59;94.24;101024.41;5063452;28;45931;-81
2022/05/22 07:02:28;;;;;;;;;9.00;6.00;;;;;27.85;91.44;101032.22;5057299;28;45474;-82
2022/05/22 07:05:03;;;;;;;;;5.00;5.00;;;;;27.45;93.13;101012.31;5058831;28;45474;-86
2022/05/22 07:07:28;;;;;;;;;4.67;4.67;;;;;27.28;93.95;101013.78;5059214;28;45481;-81
2022/05/22 07:09:55;;;;;;;;;9.00;5.33;;;;;26.87;92.45;101017.50;5060993;28;45645;-81
2022/05/22 07:12:21;;;;;;;;;4.00;4.00;;;;;26.53;95.16;101044.00;5057994;28;45476;-84
2022/05/22 07:14:54;;;;;;;;;4.67;4.67;;;;;26.20;96.70;101031.94;5061290;28;45363;-86
2022/05/22 07:17:24;;;;;;;;;3.00;3.00;;;;;26.13;97.54;101029.50;5053865;28;45913;-82
2022/05/22 07:19:58;;;;;;;;;4.67;4.67;;;;;26.40;96.43;101025.09;5059701;28;46130;-89
2022/05/22 07:22:24;;;;;;;;;3.33;3.33;;;;;26.46;97.05;101037.09;5063632;28;45702;-82
2022/05/22 07:25:06;;;;;;;;;3.00;3.00;;;;;26.26;97.55;101011.03;5061509;28;45658;-80
2022/05/22 07:27:31;;;;;;;;;4.00;4.00;;;;;26.07;97.90;100992.22;5041679;28;45426;-83
2022/05/22 07:29:57;;;;;;;;;5.00;4.00;;;;;25.60;100.00;100990.44;5052243;28;47012;-86
2022/05/22 07:32:25;;;;;;;;;6.33;4.33;;;;;24.97;100.00;101037.31;5062665;28;44717;-84
2022/05/22 07:34:51;;;;;;;;;3.67;3.67;;;;;24.84;100.00;101048.13;5080225;28;45776;-85
2022/05/22 07:37:25;;;;;;;;;6.00;4.00;;;;;24.82;100.00;101013.09;5067674;28;45421;-83
2022/05/22 07:39:54;;;;;;;;;4.33;4.33;;;;;24.82;100.00;101027.97;5067269;28;46939;-81
2022/05/22 07:42:20;;;;;;;;;4.00;3.67;;;;;24.64;100.00;101035.19;5087320;28;45772;-84
2022/05/22 07:44:46;;;;;;;;;4.00;3.00;;;;;24.39;100.00;101018.59;5063108;28;45407;-83
2022/05/22 07:47:12;;;;;;;;;6.00;5.00;;;;;24.40;100.00;101029.50;5081449;28;45802;-83
2022/05/22 07:52:21;;;;;;;;;3.00;3.00;;;;;24.52;100.00;101008.63;5063129;28;45544;-83
2022/05/22 07:54:47;;;;;;;;;4.00;4.00;;;;;24.82;100.00;101007.47;5063726;28;44911;-83
2022/05/22 07:57:13;;;;;;;;;5.67;3.67;;;;;25.46;100.00;100999.63;5059372;28;45597;-84
2022/05/22 07:59:38;;;;;;;;;3.00;3.00;;;;;26.73;97.19;101003.41;5052637;28;47252;-83
2022/05/22 08:02:12;;;;;;;;;4.67;4.00;;;;;27.83;90.45;100983.81;5037993;28;45513;-84
2022/05/22 08:04:39;;;;;;;;;6.67;6.00;;;;;29.11;83.33;100973.00;5039779;28;45700;-84
2022/05/22 08:07:04;;;;;;;;;3.33;3.33;;;;;30.04;77.87;100951.88;5037514;28;45393;-84
2022/05/22 08:09:30;;;;;;;;;5.00;3.67;;;;;30.94;72.75;100963.38;5054369;28;46948;-84
2022/05/22 08:11:55;;;;;;;;;3.00;3.00;;;;;31.66;70.03;100952.88;5041279;28;45285;-83
2022/05/22 08:14:24;;;;;;;;;3.33;3.00;;;;;32.38;67.61;100951.78;5040636;28;45807;-82
2022/05/22 08:16:51;;;;;;;;;2.33;2.33;;;;;33.14;62.83;100955.09;5041128;28;45417;-83
2022/05/22 08:19:18;;;;;;;;;4.00;3.00;;;;;33.68;61.13;100931.13;5042457;28;46377;-83
2022/05/22 08:21:43;;;;;;;;;4.00;2.67;;;;;34.65;56.37;100945.13;5049430;28;45441;-83
2022/05/22 08:24:12;;;;;;;;;3.00;2.00;;;;;35.18;54.27;100939.09;5049165;28;45459;-82
2022/05/22 08:26:38;;;;;;;;;2.00;2.00;;;;;35.63;52.33;100942.53;5049823;28;45056;-82
2022/05/22 08:29:04;;;;;;;;;2.50;2.25;;;;;35.34;50.74;100923.97;5044639;28;47861;-82
2022/05/22 08:31:29;;;;;;;;;2.00;2.00;;;;;34.81;51.09;100913.81;5054321;28;45810;-85
2022/05/22 08:33:55;;;;;;;;;2.67;2.67;;;;;34.41;53.10;100922.56;5053917;28;45337;-84
2022/05/22 08:36:21;;;;;;;;;4.33;3.00;;;;;33.75;53.97;100913.50;5054834;28;46615;-83
2022/05/22 08:38:49;;;;;;;;;3.00;2.67;;;;;33.03;56.43;100940.56;5058046;28;45593;-82
2022/05/22 08:41:21;;;;;;;;;3.67;2.00;;;;;32.45;60.04;100946.34;5065210;28;45733;-84
2022/05/22 08:43:54;;;;;;;;;5.33;4.00;;;;;32.61;58.96;100935.13;5065512;28;45442;-82
2022/05/22 08:46:55;;;;;;;;;6.75;3.75;;;;;32.56;60.86;100944.72;5065849;28;45462;-86
2022/05/22 08:49:42;;;;;;;;;4.00;2.33;;;;;32.95;59.21;100932.16;5061955;28;45469;-84
2022/05/22 08:52:29;;;;;;;;;2.75;2.75;;;;;32.88;60.14;100933.59;5058562;28;45446;-83
2022/05/22 08:55:08;;;;;;;;;2.67;2.67;;;;;32.45;60.61;100914.31;5059112;28;45887;-84
2022/05/22 09:00:29;;;;;;;;;3.33;3.00;;;;;31.86;60.83;100911.47;5060327;28;45689;-83
2022/05/22 09:03:18;;;;;;;;;3.00;2.33;;;;;31.74;62.50;100897.25;5066333;27;45394;-83
2022/05/22 09:05:47;;;;;;;;;7.67;7.67;;;;;32.09;63.07;100927.25;5060996;28;44937;-82
2022/05/22 09:08:20;;;;;;;;;3.00;3.00;;;;;32.56;59.86;100910.66;5056808;28;45744;-84
2022/05/22 09:10:54;;;;;;;;;3.00;2.00;;;;;32.97;59.18;100907.09;5056544;28;46632;-85
2022/05/22 09:13:52;;;;;;;;;3.00;2.00;;;;;33.09;58.63;100907.03;5056516;28;45755;-84
2022/05/22 09:16:44;;;;;;;;;2.00;2.00;;;;;33.19;56.32;100886.66;5057300;28;45750;-82
2022/05/22 09:19:26;;;;;;;;;1.33;1.33;;;;;33.33;55.55;100891.13;5055160;28;46232;-85
2022/05/22 09:22:21;;;;;;;;;4.00;3.00;;;;;33.34;56.51;100924.03;5056572;28;45821;-85
2022/05/22 09:25:08;;;;;;;;;2.33;2.33;;;;;33.40;54.36;100908.38;5059597;28;45745;-85
2022/05/22 09:27:49;;;;;;;;;4.00;3.00;;;;;33.43;53.17;100902.00;5055918;28;45834;-84
2022/05/22 09:30:30;;;;;;;;;1.00;1.00;;;;;33.73;52.32;100899.63;5055707;28;45426;-84
2022/05/22 09:33:08;;;;;;;;;2.33;2.33;;;;;34.12;51.29;100887.66;5054086;28;45516;-84
2022/05/22 09:35:56;;;;;;;;;3.00;2.00;;;;;34.67;50.52;100870.69;5054290;28;45766;-86
2022/05/22 09:38:49;;;;;;;;;3.67;3.67;;;;;34.89;48.77;100872.06;5054222;28;45788;-85
2022/05/22 09:41:34;;;;;;;;;2.00;2.00;;;;;34.50;48.16;100865.44;5053237;28;45333;-84
2022/05/22 09:44:17;;;;;;;;;2.25;2.25;;;;;33.91;46.89;100865.97;5054866;28;46299;-83
2022/05/22 09:47:20;;;;;;;;;1.00;1.00;;;;;33.20;48.01;100865.56;5054877;28;45426;-85
2022/05/22 09:49:54;;;;;;;;;2.00;2.00;;;;;32.50;51.07;100860.97;5055635;28;45901;-85
2022/05/22 09:52:53;;;;;;;;;1.75;1.75;;;;;31.60;54.47;100840.84;5053932;28;45826;-83
2022/05/22 09:55:25;;;;;;;;;3.00;2.00;;;;;30.98;57.35;100836.88;5058930;28;45430;-85
2022/05/22 09:58:18;;;;;;;;;4.00;4.00;;;;;30.23;58.97;100801.56;5055510;28;45526;-85
2022/05/22 10:01:07;;;;;;;;;1.00;1.00;;;;;29.89;59.40;100819.53;5054356;28;45541;-85
2022/05/22 10:04:06;;;;;;;;;3.00;2.00;;;;;29.30;61.34;100840.78;5040829;28;46119;-82
2022/05/22 10:06:55;;;;;;;;;1.00;1.00;;;;;28.78;64.87;100823.81;5044017;28;45554;-84
2022/05/22 10:09:48;;;;;;;;;1.67;1.67;;;;;28.45;66.50;100818.56;5048167;28;45572;-81
2022/05/22 10:12:33;;;;;;;;;2.67;2.00;;;;;28.22;68.01;100793.31;5055578;28;45208;-84
2022/05/22 10:15:25;;;;;;;;;2.00;2.00;;;;;27.99;67.87;100806.66;5048800;28;45554;-84
2022/05/22 10:18:00;;;;;;;;;1.00;1.00;;;;;27.84;67.42;100793.78;5053504;28;46482;-85
2022/05/22 10:20:53;;;;;;;;;1.67;1.67;;;;;27.46;68.15;100791.47;5051138;28;45517;-82
2022/05/22 10:23:49;;;;;;;;;3.33;2.67;;;;;27.03;69.92;100798.41;5051468;28;45830;-83
2022/05/22 10:26:21;;;;;;;;;4.00;4.00;;;;;26.98;71.39;100786.44;5051030;28;46319;-84
2022/05/22 10:29:23;;;;;;;;;2.67;1.67;;;;;26.82;72.50;100769.94;5050821;28;45509;-85
2022/05/22 10:31:58;;;;;;;;;2.00;2.00;;;;;26.84;72.70;100776.09;5050564;28;45684;-83
2022/05/22 10:34:49;;;;;;;;;2.00;2.00;;;;;26.60;75.52;100779.16;5044565;28;45727;-83
2022/05/22 10:37:32;;;;;;;;;1.33;1.33;;;;;26.34;77.04;100759.22;5043962;28;45731;-83
2022/05/22 10:40:03;;;;;;;;;3.00;3.00;;;;;26.28;78.02;100766.09;5048753;28;45968;-83
2022/05/22 10:42:46;;;;;;;;;1.00;1.00;;;;;26.17;78.54;100748.59;5049435;28;45720;-83
2022/05/22 10:45:37;;;;;;;;;5.00;3.00;;;;;26.29;77.47;100739.63;5046153;28;45943;-83
2022/05/22 10:48:33;;;;;;;;;1.67;1.00;;;;;26.32;77.83;100724.94;5044951;28;45827;-87
2022/05/22 10:51:02;;;;;;;;;1.00;1.00;;;;;26.31;76.96;100729.75;5047173;28;45486;-86
2022/05/22 10:53:46;;;;;;;;;1.00;1.00;;;;;26.02;80.20;100728.13;5051881;28;45564;-87
2022/05/22 10:56:26;;;;;;;;;2.67;2.00;;;;;25.83;79.37;100722.59;5058856;28;45558;-88
2022/05/22 10:59:07;;;;;;;;;2.67;2.00;;;;;25.32;81.14;100701.16;5065341;28;45632;-86
2022/05/22 11:01:37;;;;;;;;;2.33;2.33;;;;;25.01;84.28;100684.84;5054307;28;45841;-87
2022/05/22 11:04:14;;;;;;;;;2.67;2.00;;;;;25.06;86.06;100697.94;5074829;27;45522;-87
2022/05/22 11:07:06;;;;;;;;;3.33;2.33;;;;;25.00;87.13;100712.06;5076027;28;45573;-89
2022/05/22 11:09:43;;;;;;;;;2.00;2.00;;;;;24.83;89.45;100709.81;5032791;28;45820;-89
2022/05/22 11:12:18;;;;;;;;;3.67;2.00;;;;;24.62;90.60;100681.28;5055584;28;46788;-85
2022/05/22 11:14:47;;;;;;;;;2.00;2.00;;;;;24.74;92.84;100697.63;5050595;28;45949;-85
2022/05/22 11:17:19;;;;;;;;;3.00;3.00;;;;;24.56;92.52;100679.66;5057488;28;45459;-85
2022/05/22 11:19:48;;;;;;;;;8.67;7.67;;;;;24.63;92.13;100673.72;5045434;28;45888;-87
2022/05/22 11:22:58;;;;;;;;;4.00;2.33;;;;;24.78;90.56;100678.25;5058625;28;46070;-87
2022/05/22 11:25:23;;;;;;;;;3.00;2.00;;;;;25.11;91.13;100715.53;5058181;28;45634;-86
2022/05/22 11:28:24;;;;;;;;;3.33;3.33;;;;;25.16;92.92;100709.81;5052850;28;45738;-86
2022/05/22 11:31:03;;;;;;;;;3.33;3.33;;;;;25.26;94.30;100713.59;5020438;28;45572;-86
2022/05/22 11:34:09;;;;;;;;;4.00;3.00;;;;;25.08;93.87;100670.41;5045899;28;45557;-85
2022/05/22 11:37:06;;;;;;;;;4.00;2.67;;;;;25.35;94.50;100694.91;5046332;28;45482;-85
2022/05/22 11:39:50;;;;;;;;;4.00;4.00;;;;;25.32;94.94;100695.53;5049115;28;45388;-84
2022/05/22 11:42:33;;;;;;;;;4.00;3.00;;;;;25.01;95.67;100660.41;5049140;28;45704;-86
2022/05/22 11:45:32;;;;;;;;;4.33;3.00;;;;;25.00;96.16;100643.88;5054450;28;46262;-87
2022/05/22 11:48:19;;;;;;;;;3.67;2.67;;;;;25.47;94.35;100719.69;5055369;28;45402;-89